Delta Virtual Airport Information Service

Cincinnati Northern Kentucky International Airport

ICAO: KCVG Country: United States
Latitude: 39.0488 Longitude: -84.6678
Latest Arrival : DAL2278 (A) (KLGA-KCVG) Latest Departure : DAL6733731 (KCVG-KLGA)


WX CaptureLIVE
Data provided by noaa.gov | Fetched at 14:40:14

METAR : KCVG 291852Z 25007KT 10SM FEW020 OVC210 15/11 A2989 RMK AO2 SLP117 BINOVC T01500106

TAF : KCVG 291741Z 2918/3024 24006KT P6SM SCT035 BKN250 FM300200 25005KT P6SM FEW200 FM301200 22010KT P6SM FEW250 FM301500 21013G26KT P6SM FEW250


Runway Data for KCVG
Data provided by openaviationdata.com

Runway ID Mag Var Hdg Length Elevation Surface ILS Freq ILS Id ILS Slope
9 -4 94° 11984 ft 896 ft Asphalt 111.9 IURN 3
18L -4 184° 10010 ft 896 ft Concrete 110.15 ICIZ 3
18R -4 184° 11010 ft 896 ft Asphalt 111.55 ISIC 3
27 -4 274° 11984 ft 896 ft Asphalt 108.7 IJDP 3
36L -4 11010 ft 896 ft Asphalt 109.9 ICVG 3
36R -4 10010 ft 896 ft Concrete 110.35 IEEI 3

Cincinnati Northern Kentucky International Airport, United States
Use only for reference purposes



Not for navigational purposes.